createdAt,value
2023-05-10T00:00:23.972Z,58.80
2023-05-10T00:03:10.284Z,58.90
2023-05-10T00:05:38.441Z,59.00
2023-05-10T00:08:07.138Z,59.30
2023-05-10T00:10:35.227Z,59.20
2023-05-10T00:13:03.691Z,59.50
2023-05-10T00:15:34.312Z,59.20
2023-05-10T00:18:02.877Z,59.20
2023-05-10T00:20:31.142Z,59.60
2023-05-10T00:22:59.491Z,59.50
2023-05-10T00:25:27.870Z,59.50
2023-05-10T00:27:58.736Z,59.60
2023-05-10T00:30:26.563Z,59.90
2023-05-10T00:32:54.848Z,60.00
2023-05-10T00:35:23.023Z,59.90
2023-05-10T00:37:51.117Z,59.70
2023-05-10T00:40:18.966Z,59.80
2023-05-10T00:42:52.019Z,59.90
2023-05-10T00:45:20.601Z,60.10
2023-05-10T00:47:49.080Z,60.00
2023-05-10T00:50:17.572Z,60.30
2023-05-10T00:52:46.238Z,60.40
2023-05-10T00:55:14.797Z,60.20
2023-05-10T00:57:43.954Z,60.20
2023-05-10T01:00:12.659Z,60.20
2023-05-10T01:02:42.913Z,60.00
2023-05-10T01:05:10.821Z,60.10
2023-05-10T01:07:38.940Z,60.20
2023-05-10T01:10:08.337Z,60.20
2023-05-10T01:12:41.872Z,60.30
2023-05-10T01:15:12.399Z,60.60
2023-05-10T01:17:43.852Z,60.70
2023-05-10T01:20:13.185Z,61.00
2023-05-10T01:22:47.253Z,61.10
2023-05-10T01:25:29.918Z,61.10
2023-05-10T01:28:19.431Z,61.20
2023-05-10T01:31:09.974Z,61.10
2023-05-10T01:33:46.269Z,61.10
2023-05-10T01:36:19.853Z,61.20
2023-05-10T01:38:59.358Z,61.10
2023-05-10T01:41:45.786Z,61.40
2023-05-10T01:44:30.179Z,61.30
2023-05-10T01:47:28.997Z,61.50
2023-05-10T01:50:03.571Z,61.80
2023-05-10T01:52:45.822Z,61.40
2023-05-10T01:55:18.009Z,61.40
2023-05-10T01:57:47.817Z,61.40
2023-05-10T02:00:17.595Z,61.40
2023-05-10T02:02:51.664Z,61.60
2023-05-10T02:05:21.812Z,61.70
2023-05-10T02:07:51.577Z,61.80
2023-05-10T02:10:22.083Z,61.80
2023-05-10T02:12:52.060Z,61.60
2023-05-10T02:15:25.026Z,61.70
2023-05-10T02:17:54.140Z,61.90
2023-05-10T02:20:24.674Z,61.90
2023-05-10T02:22:55.689Z,61.90
2023-05-10T02:25:26.849Z,61.90
2023-05-10T02:27:59.248Z,61.80
2023-05-10T02:30:28.313Z,61.90
2023-05-10T02:32:57.854Z,61.80
2023-05-10T02:35:27.883Z,61.90
2023-05-10T02:37:57.804Z,62.10
2023-05-10T02:40:28.930Z,62.20
2023-05-10T02:43:01.042Z,62.30
2023-05-10T02:45:32.500Z,62.20
2023-05-10T02:48:01.043Z,62.40
2023-05-10T02:50:31.490Z,62.60
2023-05-10T02:53:03.504Z,62.50
2023-05-10T02:55:37.910Z,62.50
2023-05-10T02:58:06.561Z,62.60
2023-05-10T03:00:35.069Z,62.60
2023-05-10T03:03:03.032Z,62.70
2023-05-10T03:05:31.289Z,62.60
2023-05-10T03:08:05.497Z,62.70
2023-05-10T03:10:36.521Z,63.00
2023-05-10T03:13:36.710Z,62.80
2023-05-10T03:16:11.580Z,63.00
2023-05-10T03:19:27.857Z,63.00
2023-05-10T03:22:00.888Z,63.30
2023-05-10T03:24:35.175Z,63.20
2023-05-10T03:27:05.697Z,63.20
2023-05-10T03:29:34.285Z,63.30
2023-05-10T03:32:02.509Z,63.40
2023-05-10T03:34:34.993Z,63.60
2023-05-10T03:37:03.200Z,63.70
2023-05-10T03:39:32.850Z,63.70
2023-05-10T03:42:02.629Z,63.70
2023-05-10T03:44:32.398Z,63.80
2023-05-10T03:47:01.071Z,63.80
2023-05-10T03:49:28.883Z,63.80
2023-05-10T03:51:57.277Z,63.80
2023-05-10T03:54:25.703Z,63.90
2023-05-10T03:56:53.995Z,63.90
2023-05-10T03:59:23.063Z,63.90
2023-05-10T04:01:53.327Z,63.90
2023-05-10T04:04:22.220Z,63.90
2023-05-10T04:06:51.914Z,63.90
2023-05-10T04:09:20.932Z,63.90
2023-05-10T04:11:49.431Z,63.80
2023-05-10T04:14:17.864Z,63.80
2023-05-10T04:16:46.332Z,63.60
2023-05-10T04:19:14.142Z,63.50
2023-05-10T04:21:42.703Z,63.40
2023-05-10T04:24:10.844Z,63.40
2023-05-10T04:26:38.832Z,63.40
2023-05-10T04:29:06.374Z,63.20
2023-05-10T04:31:35.731Z,63.00
2023-05-10T04:34:03.457Z,62.90
2023-05-10T04:36:31.562Z,63.00
2023-05-10T04:38:59.652Z,62.90
2023-05-10T04:41:28.118Z,62.60
2023-05-10T04:43:56.481Z,62.60
2023-05-10T04:46:24.887Z,62.40
2023-05-10T04:48:52.851Z,62.10
2023-05-10T04:51:21.882Z,61.70
2023-05-10T04:54:01.589Z,61.70
2023-05-10T04:56:33.469Z,61.60
2023-05-10T04:59:01.941Z,61.70
2023-05-10T05:01:30.718Z,61.20
2023-05-10T05:03:59.071Z,61.10
2023-05-10T05:06:28.560Z,61.10
2023-05-10T05:08:56.755Z,60.60
2023-05-10T05:11:24.974Z,60.70
2023-05-10T05:13:52.997Z,60.40
2023-05-10T05:16:21.363Z,60.50
2023-05-10T05:18:49.449Z,60.30
2023-05-10T05:21:20.821Z,59.90
2023-05-10T05:23:48.607Z,59.70
2023-05-10T05:26:17.969Z,59.40
2023-05-10T05:28:45.996Z,59.30
2023-05-10T05:31:16.073Z,59.00
2023-05-10T05:33:43.841Z,58.40
2023-05-10T05:36:12.091Z,57.50
2023-05-10T05:38:40.566Z,56.80
2023-05-10T05:41:08.689Z,56.20
2023-05-10T05:43:38.311Z,55.50
2023-05-10T05:46:07.747Z,55.20
2023-05-10T05:48:35.809Z,54.30
2023-05-10T05:51:06.538Z,54.30
2023-05-10T05:53:35.445Z,53.90
2023-05-10T05:56:04.999Z,53.90
2023-05-10T05:58:32.822Z,53.20
2023-05-10T06:01:01.014Z,52.70
2023-05-10T06:03:30.448Z,52.70
2023-05-10T06:05:58.720Z,52.60
2023-05-10T06:08:27.036Z,52.70
2023-05-10T06:10:55.713Z,52.50
2023-05-10T06:13:24.020Z,52.70
2023-05-10T06:15:52.546Z,51.80
2023-05-10T06:18:20.444Z,51.60
2023-05-10T06:20:48.652Z,51.80
2023-05-10T06:23:17.922Z,51.50
2023-05-10T06:25:46.201Z,51.20
2023-05-10T06:28:14.058Z,51.00
2023-05-10T06:30:42.299Z,51.30
2023-05-10T06:33:10.266Z,51.30
2023-05-10T06:35:38.644Z,50.50
2023-05-10T06:38:06.685Z,50.60
2023-05-10T06:40:34.949Z,50.60
2023-05-10T06:43:02.824Z,49.70
2023-05-10T06:45:31.313Z,49.20
2023-05-10T06:47:59.158Z,49.40
2023-05-10T06:50:27.511Z,48.60
2023-05-10T06:52:56.735Z,48.90
2023-05-10T06:55:24.869Z,49.30
2023-05-10T06:57:52.958Z,48.20
2023-05-10T07:00:22.128Z,47.50
2023-05-10T07:02:50.043Z,47.50
2023-05-10T07:05:18.963Z,47.50
2023-05-10T07:07:46.795Z,46.70
2023-05-10T07:10:15.331Z,47.30
2023-05-10T07:12:43.362Z,47.10
2023-05-10T07:15:11.912Z,47.00
2023-05-10T07:17:40.424Z,46.60
2023-05-10T07:20:10.315Z,45.90
2023-05-10T07:22:38.262Z,45.50
2023-05-10T07:25:06.750Z,46.20
2023-05-10T07:27:35.813Z,45.20
2023-05-10T07:30:04.206Z,44.80
2023-05-10T07:32:33.047Z,44.50
2023-05-10T07:35:01.399Z,44.50
2023-05-10T07:37:29.146Z,44.10
2023-05-10T07:39:59.330Z,43.40
2023-05-10T07:42:27.107Z,43.00
2023-05-10T07:44:55.214Z,43.00
2023-05-10T07:47:23.101Z,42.90
2023-05-10T07:49:51.741Z,42.70
2023-05-10T07:52:21.232Z,42.40
2023-05-10T07:54:51.255Z,42.40
2023-05-10T07:57:19.705Z,42.40
2023-05-10T07:59:49.111Z,42.20
2023-05-10T08:02:16.920Z,41.80
2023-05-10T08:04:45.253Z,41.50
2023-05-10T08:07:13.084Z,41.20
2023-05-10T08:09:41.290Z,41.20
2023-05-10T08:12:09.194Z,41.20
2023-05-10T08:14:40.719Z,40.90
2023-05-10T08:17:08.451Z,40.40
2023-05-10T08:19:37.042Z,40.30
2023-05-10T08:22:04.817Z,40.20
2023-05-10T08:24:33.023Z,40.30
2023-05-10T08:27:00.827Z,40.00
2023-05-10T08:29:32.733Z,39.60
2023-05-10T08:32:03.566Z,38.60
2023-05-10T08:34:32.547Z,39.40
2023-05-10T08:37:00.348Z,38.80
2023-05-10T08:39:30.692Z,38.30
2023-05-10T08:42:03.989Z,38.30
2023-05-10T08:44:37.508Z,38.40
2023-05-10T08:47:10.487Z,37.80
2023-05-10T08:49:38.959Z,37.80
2023-05-10T08:52:08.742Z,37.70
2023-05-10T08:54:36.837Z,37.50
2023-05-10T08:57:06.467Z,36.60
2023-05-10T08:59:34.790Z,36.70
2023-05-10T09:02:03.568Z,37.00
2023-05-10T09:04:33.601Z,36.70
2023-05-10T09:07:01.737Z,36.40
2023-05-10T09:09:30.325Z,36.40
2023-05-10T09:11:58.241Z,36.10
2023-05-10T09:14:26.886Z,36.00
2023-05-10T09:16:56.692Z,35.80
2023-05-10T09:19:25.102Z,35.80
2023-05-10T09:21:53.378Z,35.20
2023-05-10T09:24:27.760Z,35.30
2023-05-10T09:26:57.956Z,34.90
2023-05-10T09:29:26.019Z,34.50
2023-05-10T09:31:56.706Z,34.60
2023-05-10T09:34:33.413Z,34.40
2023-05-10T09:37:02.788Z,33.70
2023-05-10T09:39:35.662Z,34.30
2023-05-10T09:42:06.153Z,34.10
2023-05-10T09:44:36.836Z,34.30
2023-05-10T09:47:04.618Z,34.10
2023-05-10T09:49:34.596Z,33.90
2023-05-10T09:52:09.177Z,33.60
2023-05-10T09:54:38.628Z,33.80
2023-05-10T09:57:06.597Z,33.80
2023-05-10T09:59:36.252Z,33.70
2023-05-10T10:02:04.645Z,33.40
2023-05-10T10:04:33.070Z,33.00
2023-05-10T10:07:05.955Z,33.00
2023-05-10T10:09:35.740Z,33.30
2023-05-10T10:12:04.981Z,33.30
2023-05-10T10:14:33.316Z,33.30
2023-05-10T10:17:07.291Z,33.20
2023-05-10T10:19:38.203Z,33.20
2023-05-10T10:22:07.463Z,33.30
2023-05-10T10:24:35.662Z,33.20
2023-05-10T10:27:26.270Z,33.00
2023-05-10T10:30:19.714Z,32.90
2023-05-10T10:33:32.634Z,33.10
2023-05-10T10:36:03.552Z,32.30
2023-05-10T10:39:01.822Z,32.50
2023-05-10T10:41:35.999Z,32.80
2023-05-10T10:44:35.399Z,32.40
2023-05-10T10:47:12.917Z,32.40
2023-05-10T10:49:47.038Z,32.30
2023-05-10T10:52:28.232Z,32.40
2023-05-10T10:54:59.148Z,32.10
2023-05-10T10:57:28.569Z,32.40
2023-05-10T11:00:39.768Z,32.40
2023-05-10T11:03:19.818Z,32.40
2023-05-10T11:05:52.755Z,32.30
2023-05-10T11:08:33.083Z,32.10
2023-05-10T11:11:01.994Z,32.00
2023-05-10T11:13:42.043Z,32.20
2023-05-10T11:16:22.832Z,32.10
2023-05-10T11:19:04.344Z,32.30
2023-05-10T11:21:34.950Z,32.60
2023-05-10T11:24:07.287Z,32.20
2023-05-10T11:26:38.500Z,32.30
2023-05-10T11:29:06.888Z,32.50
2023-05-10T11:31:35.083Z,32.70
2023-05-10T11:34:03.775Z,32.70
2023-05-10T11:36:35.849Z,32.60
2023-05-10T11:39:05.097Z,32.70
2023-05-10T11:41:33.599Z,32.20
2023-05-10T11:44:01.986Z,32.20
2023-05-10T11:46:29.964Z,32.50
2023-05-10T11:49:05.616Z,32.50
2023-05-10T11:51:37.590Z,32.50
2023-05-10T11:54:10.686Z,32.50
2023-05-10T11:56:39.848Z,32.70
2023-05-10T11:59:09.377Z,32.60
2023-05-10T12:01:38.141Z,32.50
2023-05-10T12:04:07.235Z,32.60
2023-05-10T12:06:41.896Z,32.30
2023-05-10T12:09:10.132Z,32.50
2023-05-10T12:11:44.331Z,32.70
2023-05-10T12:14:12.992Z,32.20
2023-05-10T12:16:41.217Z,32.50
2023-05-10T12:19:09.477Z,32.40
2023-05-10T12:21:37.825Z,32.70
2023-05-10T12:24:08.496Z,32.60
2023-05-10T12:26:37.481Z,32.60
2023-05-10T12:29:26.210Z,32.60
2023-05-10T12:31:56.750Z,32.80
2023-05-10T12:34:32.249Z,33.00
2023-05-10T12:37:01.055Z,32.90
2023-05-10T12:39:43.601Z,33.30
2023-05-10T12:42:12.320Z,33.30
2023-05-10T12:44:41.136Z,33.40
2023-05-10T12:47:09.273Z,33.60
2023-05-10T12:49:37.831Z,33.80
2023-05-10T12:52:05.600Z,33.80
2023-05-10T12:54:33.833Z,34.00
2023-05-10T12:57:01.595Z,34.00
2023-05-10T12:59:29.652Z,34.00
2023-05-10T13:01:58.650Z,34.20
2023-05-10T13:04:27.068Z,34.30
2023-05-10T13:06:57.495Z,34.40
2023-05-10T13:09:26.649Z,34.60
2023-05-10T13:11:55.562Z,34.70
2023-05-10T13:14:24.126Z,34.70
2023-05-10T13:16:52.097Z,34.60
2023-05-10T13:19:20.343Z,34.70
2023-05-10T13:21:48.512Z,35.00
2023-05-10T13:24:18.244Z,35.00
2023-05-10T13:26:46.334Z,35.10
2023-05-10T13:29:14.891Z,35.10
2023-05-10T13:31:42.858Z,35.10
2023-05-10T13:34:11.376Z,35.30
2023-05-10T13:36:39.524Z,35.50
2023-05-10T13:39:07.817Z,35.50
2023-05-10T13:41:35.798Z,35.50
2023-05-10T13:44:05.124Z,35.60
2023-05-10T13:46:33.087Z,35.70
2023-05-10T13:49:01.654Z,35.90
2023-05-10T13:51:29.425Z,36.00
2023-05-10T13:53:57.674Z,36.20
2023-05-10T13:56:25.773Z,36.20
2023-05-10T13:58:54.409Z,36.30
2023-05-10T14:01:22.337Z,36.40
2023-05-10T14:03:53.009Z,36.60
2023-05-10T14:06:20.880Z,36.60
2023-05-10T14:08:54.706Z,36.70
2023-05-10T14:11:24.544Z,36.70
2023-05-10T14:13:53.320Z,36.70
2023-05-10T14:16:21.696Z,36.80
2023-05-10T14:18:51.017Z,36.80
2023-05-10T14:21:18.926Z,36.90
2023-05-10T14:23:47.124Z,37.00
2023-05-10T14:26:15.701Z,37.20
2023-05-10T14:28:46.434Z,37.40
2023-05-10T14:31:15.533Z,37.60
2023-05-10T14:33:44.740Z,37.60
2023-05-10T14:36:13.282Z,37.60
2023-05-10T14:38:42.326Z,37.70
2023-05-10T14:41:15.355Z,37.80
2023-05-10T14:43:43.697Z,37.80
2023-05-10T14:46:11.700Z,37.80
2023-05-10T14:48:39.779Z,37.90
2023-05-10T14:51:08.078Z,37.90
2023-05-10T14:53:36.583Z,37.90
2023-05-10T14:56:04.523Z,37.90
2023-05-10T14:58:36.874Z,37.90
2023-05-10T15:01:05.196Z,38.00
2023-05-10T15:03:34.999Z,38.00
2023-05-10T15:06:03.730Z,38.10
2023-05-10T15:08:33.136Z,38.10
2023-05-10T15:11:01.041Z,38.00
2023-05-10T15:13:29.290Z,38.10
2023-05-10T15:15:57.538Z,38.00
2023-05-10T15:18:25.824Z,38.10
2023-05-10T15:20:53.550Z,38.20
2023-05-10T15:23:21.810Z,38.20
2023-05-10T15:25:51.074Z,38.20
2023-05-10T15:28:19.495Z,38.30
2023-05-10T15:30:47.377Z,38.40
2023-05-10T15:33:15.455Z,38.50
2023-05-10T15:35:43.162Z,38.50
2023-05-10T15:38:11.580Z,38.60
2023-05-10T15:40:39.233Z,38.60
2023-05-10T15:43:07.707Z,38.50
2023-05-10T15:45:37.643Z,38.60
2023-05-10T15:48:06.147Z,38.60
2023-05-10T15:50:33.937Z,38.60
2023-05-10T15:53:02.017Z,38.70
2023-05-10T15:55:29.985Z,38.60
2023-05-10T15:57:58.079Z,38.60
2023-05-10T16:00:26.417Z,38.60
2023-05-10T16:02:55.494Z,38.60
2023-05-10T16:05:23.535Z,38.70
2023-05-10T16:07:52.182Z,38.90
2023-05-10T16:10:19.913Z,38.90
2023-05-10T16:12:49.160Z,38.90
2023-05-10T16:15:17.308Z,39.00
2023-05-10T16:17:47.585Z,39.00
2023-05-10T16:20:15.493Z,39.00
2023-05-10T16:22:44.733Z,39.00
2023-05-10T16:25:13.981Z,39.00
2023-05-10T16:27:43.466Z,39.00
2023-05-10T16:30:11.627Z,39.00
2023-05-10T16:32:39.890Z,39.10
2023-05-10T16:35:08.517Z,39.10
2023-05-10T16:37:37.163Z,39.00
2023-05-10T16:40:05.719Z,39.10
2023-05-10T16:42:34.208Z,39.10
2023-05-10T16:45:07.715Z,39.10
2023-05-10T16:47:40.460Z,39.10
2023-05-10T16:50:09.256Z,39.10
2023-05-10T16:52:38.938Z,39.20
2023-05-10T16:55:07.001Z,39.20
2023-05-10T16:57:36.267Z,39.30
2023-05-10T17:00:06.184Z,39.50
2023-05-10T17:02:34.704Z,39.50
2023-05-10T17:05:02.645Z,39.60
2023-05-10T17:07:31.122Z,39.70
2023-05-10T17:09:59.866Z,39.80
2023-05-10T17:12:28.229Z,39.90
2023-05-10T17:14:56.516Z,40.00
2023-05-10T17:17:25.547Z,40.10
2023-05-10T17:19:53.589Z,40.10
2023-05-10T17:22:25.878Z,40.20
2023-05-10T17:24:53.840Z,40.20
2023-05-10T17:27:22.155Z,40.10
2023-05-10T17:29:49.969Z,40.10
2023-05-10T17:32:18.136Z,40.20
2023-05-10T17:34:46.003Z,40.30
2023-05-10T17:37:14.171Z,40.30
2023-05-10T17:39:42.225Z,40.40
2023-05-10T17:42:13.006Z,40.40
2023-05-10T17:44:41.194Z,40.50
2023-05-10T17:47:12.076Z,40.50
2023-05-10T17:49:40.396Z,40.50
2023-05-10T17:52:10.707Z,40.70
2023-05-10T17:54:38.747Z,40.80
2023-05-10T17:57:06.934Z,40.80
2023-05-10T17:59:35.784Z,40.80
2023-05-10T18:02:05.360Z,40.90
2023-05-10T18:04:34.194Z,41.00
2023-05-10T18:07:04.283Z,41.10
2023-05-10T18:09:32.373Z,41.20
2023-05-10T18:12:02.865Z,41.30
2023-05-10T18:14:40.461Z,41.40
2023-05-10T18:17:11.875Z,41.40
2023-05-10T18:19:41.156Z,41.50
2023-05-10T18:22:16.509Z,41.50
2023-05-10T18:24:47.336Z,41.50
2023-05-10T18:27:16.287Z,41.60
2023-05-10T18:29:46.308Z,41.70
2023-05-10T18:32:14.609Z,41.70
2023-05-10T18:34:55.887Z,41.80
2023-05-10T18:37:26.474Z,41.90
2023-05-10T18:39:54.402Z,42.00
2023-05-10T18:42:24.954Z,42.00
2023-05-10T18:44:53.839Z,42.20
2023-05-10T18:47:22.408Z,42.20
2023-05-10T18:49:50.463Z,42.20
2023-05-10T18:52:19.507Z,42.30
2023-05-10T18:54:48.308Z,42.50
2023-05-10T18:57:17.284Z,42.60
2023-05-10T18:59:45.691Z,42.70
2023-05-10T19:02:14.276Z,42.80
2023-05-10T19:04:42.844Z,42.90
2023-05-10T19:07:11.523Z,43.00
2023-05-10T19:09:40.754Z,43.00
2023-05-10T19:12:10.234Z,43.10
2023-05-10T19:14:44.388Z,43.10
2023-05-10T19:17:14.436Z,43.10
2023-05-10T19:25:09.993Z,43.30
2023-05-10T19:27:43.050Z,43.40
2023-05-10T19:30:19.448Z,43.50
2023-05-10T19:32:52.744Z,43.60
2023-05-10T19:35:22.342Z,43.60
2023-05-10T19:37:53.269Z,43.70
2023-05-10T19:40:23.308Z,43.70
2023-05-10T19:42:57.051Z,43.90
2023-05-10T19:45:25.883Z,43.90
2023-05-10T19:47:54.222Z,44.00
2023-05-10T19:50:24.307Z,44.10
2023-05-10T19:52:53.253Z,44.10
2023-05-10T19:55:31.682Z,44.00
2023-05-10T19:58:01.221Z,44.10
2023-05-10T20:00:29.948Z,44.20
2023-05-10T20:02:58.928Z,44.40
2023-05-10T20:05:27.865Z,44.50
2023-05-10T20:07:56.453Z,44.60
2023-05-10T20:10:27.187Z,44.70
2023-05-10T20:12:56.466Z,44.70
2023-05-10T20:15:24.603Z,44.80
2023-05-10T20:17:58.434Z,44.70
2023-05-10T20:20:26.644Z,44.80
2023-05-10T20:22:55.793Z,44.80
2023-05-10T20:25:24.468Z,44.90
2023-05-10T20:27:53.778Z,44.90
2023-05-10T20:30:22.855Z,45.00
2023-05-10T20:32:52.836Z,45.10
2023-05-10T20:35:22.500Z,45.20
2023-05-10T20:37:51.263Z,45.10
2023-05-10T20:40:19.714Z,45.20
2023-05-10T20:42:49.908Z,45.30
2023-05-10T20:45:17.678Z,45.40
2023-05-10T20:47:46.100Z,45.40
2023-05-10T20:50:13.881Z,45.50
2023-05-10T20:52:42.113Z,45.50
2023-05-10T20:55:10.234Z,45.50
2023-05-10T20:57:38.669Z,45.60
2023-05-10T21:00:07.334Z,45.70
2023-05-10T21:02:36.111Z,45.70
2023-05-10T21:05:04.203Z,45.80
2023-05-10T21:07:33.252Z,45.80
2023-05-10T21:10:01.165Z,45.80
2023-05-10T21:12:29.636Z,45.90
2023-05-10T21:14:57.406Z,45.90
2023-05-10T21:17:25.589Z,46.00
2023-05-10T21:19:53.341Z,46.00
2023-05-10T21:22:21.875Z,46.10
2023-05-10T21:24:50.869Z,46.10
2023-05-10T21:27:19.001Z,46.10
2023-05-10T21:29:46.980Z,46.20
2023-05-10T21:32:15.237Z,46.20
2023-05-10T21:34:43.247Z,46.20
2023-05-10T21:37:11.857Z,46.20
2023-05-10T21:39:39.917Z,46.40
2023-05-10T21:42:08.100Z,46.40
2023-05-10T21:44:36.598Z,46.40
2023-05-10T21:47:06.023Z,46.50
2023-05-10T21:49:33.758Z,46.60
2023-05-10T21:52:02.382Z,46.70
2023-05-10T21:54:30.134Z,46.60
2023-05-10T21:56:58.945Z,46.70
2023-05-10T21:59:26.838Z,46.70
2023-05-10T22:01:55.015Z,46.80
2023-05-10T22:04:23.324Z,46.80
2023-05-10T22:06:51.331Z,46.90
2023-05-10T22:09:19.273Z,46.90
2023-05-10T22:11:50.473Z,46.90
2023-05-10T22:14:18.220Z,47.00
2023-05-10T22:16:46.713Z,47.10
2023-05-10T22:19:14.536Z,47.10
2023-05-10T22:21:43.391Z,47.10
2023-05-10T22:24:11.349Z,47.20
2023-05-10T22:26:39.524Z,47.20
2023-05-10T22:29:07.406Z,47.30
2023-05-10T22:31:36.473Z,47.30
2023-05-10T22:34:05.051Z,47.40
2023-05-10T22:36:34.674Z,47.40
2023-05-10T22:39:02.627Z,47.40
2023-05-10T22:41:30.711Z,47.50
2023-05-10T22:43:58.600Z,47.50
2023-05-10T22:46:27.146Z,47.50
2023-05-10T22:48:55.185Z,47.60
2023-05-10T22:51:23.360Z,47.60
2023-05-10T22:53:51.206Z,47.60
2023-05-10T22:56:19.555Z,47.70
2023-05-10T22:58:47.308Z,47.70
2023-05-10T23:01:16.910Z,47.80
2023-05-10T23:03:45.212Z,47.90
2023-05-10T23:06:13.374Z,47.90
2023-05-10T23:08:41.207Z,47.90
2023-05-10T23:11:09.334Z,47.90
2023-05-10T23:13:37.029Z,48.00
2023-05-10T23:16:09.433Z,48.00
2023-05-10T23:18:37.167Z,48.00
2023-05-10T23:21:05.814Z,48.00
2023-05-10T23:23:34.990Z,48.00
2023-05-10T23:26:04.673Z,48.10
2023-05-10T23:28:34.073Z,48.20
2023-05-10T23:31:02.388Z,48.20
2023-05-10T23:33:30.224Z,48.30
2023-05-10T23:35:58.403Z,48.30
2023-05-10T23:38:26.419Z,48.30
2023-05-10T23:40:55.433Z,48.40
2023-05-10T23:43:23.364Z,48.40
2023-05-10T23:45:58.498Z,48.50
2023-05-10T23:48:26.432Z,48.50
2023-05-10T23:50:54.612Z,48.60
2023-05-10T23:53:22.639Z,48.70
2023-05-10T23:55:50.815Z,48.70
2023-05-10T23:58:18.582Z,48.80
